Am Qui, Tennessee
Current Conditions -  °F | °C
As of 8:53 AM on Tuesday 21 Oct 2014 (Local Time) from KBNA Reporting Station
Clear Clear  
Wind Chill: 14°   Ceiling: Unl
Heat Index: 14°   Visibility: 10mi
Dew Point: 11°   Wind: 3mph
Humidity: 81%   Direction: 310°NW
Pressure: 30.07"   Gusts: NA
Location:  36.2555°N, 86.6973°W
Report Text: KBNA 211353Z 31003KT 10SM CLR 14/11 A3007 RMK AO2 SLP182 T01440111
Loading
Personal Weather Stations






























Interactive Weather Map
Tropical Storm Tracking
New forecast layout! Learn more

10-Day Weather Forecast

Advertisements
Track Severe Weather on mobile